createdAt,value
2024-03-29T00:00:08.647Z,9.5
2024-03-29T00:01:39.153Z,9.6
2024-03-29T00:03:09.695Z,9.6
2024-03-29T00:04:40.283Z,9.6
2024-03-29T00:06:10.846Z,9.6
2024-03-29T00:07:41.357Z,9.6
2024-03-29T00:09:11.905Z,9.6
2024-03-29T00:10:42.536Z,9.6
2024-03-29T00:12:12.993Z,9.6
2024-03-29T00:13:43.418Z,9.6
2024-03-29T00:15:13.982Z,9.6
2024-03-29T00:16:44.470Z,9.6
2024-03-29T00:18:14.982Z,9.6
2024-03-29T00:19:45.429Z,9.6
2024-03-29T00:21:15.843Z,9.6
2024-03-29T00:22:46.361Z,9.6
2024-03-29T00:24:17.273Z,9.6
2024-03-29T00:25:47.710Z,9.6
2024-03-29T00:27:18.256Z,9.6
2024-03-29T00:28:49.034Z,9.6
2024-03-29T00:30:19.681Z,9.6
2024-03-29T00:31:50.132Z,9.6
2024-03-29T00:33:20.775Z,9.6
2024-03-29T00:34:51.303Z,9.6
2024-03-29T00:36:21.767Z,9.6
2024-03-29T00:37:52.559Z,9.6
2024-03-29T00:39:23.160Z,9.6
2024-03-29T00:40:53.644Z,9.6
2024-03-29T00:42:24.062Z,9.6
2024-03-29T00:43:54.501Z,9.6
2024-03-29T00:45:34.986Z,9.6
2024-03-29T00:47:05.538Z,9.6
2024-03-29T00:48:36.044Z,9.6
2024-03-29T00:50:06.583Z,9.6
2024-03-29T00:51:37.052Z,9.6
2024-03-29T00:53:07.618Z,9.6
2024-03-29T00:54:38.140Z,9.6
2024-03-29T00:56:08.752Z,9.6
2024-03-29T00:57:39.248Z,9.6
2024-03-29T00:59:09.809Z,9.6
2024-03-29T01:00:40.344Z,9.6
2024-03-29T01:02:10.794Z,9.6
2024-03-29T01:03:41.226Z,9.6
2024-03-29T01:05:11.808Z,9.6
2024-03-29T01:06:42.269Z,9.6
2024-03-29T01:08:12.717Z,9.6
2024-03-29T01:09:43.208Z,9.6
2024-03-29T01:11:13.672Z,9.6
2024-03-29T01:12:44.214Z,9.6
2024-03-29T01:14:14.671Z,9.6
2024-03-29T01:15:45.100Z,9.6
2024-03-29T01:17:15.690Z,9.6
2024-03-29T01:18:46.132Z,9.6
2024-03-29T01:20:16.703Z,9.7
2024-03-29T01:21:47.204Z,9.6
2024-03-29T01:23:17.741Z,9.7
2024-03-29T01:24:48.230Z,9.7
2024-03-29T01:26:18.653Z,9.7
2024-03-29T01:27:49.235Z,9.7
2024-03-29T01:29:19.694Z,9.7
2024-03-29T01:30:50.123Z,9.7
2024-03-29T01:32:20.550Z,9.7
2024-03-29T01:33:51.059Z,9.7
2024-03-29T01:35:21.490Z,9.7
2024-03-29T01:36:51.913Z,9.7
2024-03-29T01:38:22.428Z,9.7
2024-03-29T01:39:52.843Z,9.7
2024-03-29T01:41:23.284Z,9.7
2024-03-29T01:41:40.260Z,9.7
2024-03-29T01:43:10.676Z,9.7
2024-03-29T01:44:41.102Z,9.7
2024-03-29T01:46:11.537Z,9.7
2024-03-29T01:47:42.044Z,9.7
2024-03-29T01:49:12.463Z,9.7
2024-03-29T01:50:42.971Z,9.7
2024-03-29T01:52:13.429Z,9.7
2024-03-29T01:53:43.829Z,9.7
2024-03-29T01:55:14.306Z,9.7
2024-03-29T01:56:44.783Z,9.7
2024-03-29T01:58:15.293Z,9.7
2024-03-29T01:59:45.731Z,9.7
2024-03-29T03:03:25.676Z,9.8
2024-03-29T03:04:56.106Z,9.8
2024-03-29T03:06:26.571Z,9.8
2024-03-29T03:07:57.090Z,9.8
2024-03-29T03:09:27.577Z,9.8
2024-03-29T03:10:58.009Z,9.8
2024-03-29T03:12:28.514Z,9.8
2024-03-29T03:13:58.950Z,9.8
2024-03-29T03:15:29.368Z,9.8
2024-03-29T03:16:59.889Z,9.8
2024-03-29T03:18:30.383Z,9.8
2024-03-29T03:20:00.832Z,9.8
2024-03-29T03:21:31.265Z,9.8
2024-03-29T03:23:01.786Z,9.8
2024-03-29T03:24:32.293Z,9.8
2024-03-29T03:26:02.785Z,9.8
2024-03-29T03:27:33.247Z,9.8
2024-03-29T03:29:03.781Z,9.8
2024-03-29T03:30:34.191Z,9.8
2024-03-29T03:32:04.881Z,9.8
2024-03-29T03:33:35.348Z,9.8
2024-03-29T03:35:05.882Z,9.8
2024-03-29T03:36:36.376Z,9.8
2024-03-29T03:38:06.976Z,9.8
2024-03-29T03:39:37.450Z,9.8
2024-03-29T03:41:08.018Z,9.8
2024-03-29T03:42:38.565Z,9.8
2024-03-29T03:44:09.072Z,9.8
2024-03-29T03:45:39.646Z,9.8
2024-03-29T03:47:10.199Z,9.8
2024-03-29T03:48:40.674Z,9.8
2024-03-29T03:50:11.138Z,9.8
2024-03-29T03:51:41.599Z,9.8
2024-03-29T03:53:12.020Z,9.8
2024-03-29T03:54:42.454Z,9.8
2024-03-29T03:56:12.961Z,9.8
2024-03-29T03:57:43.389Z,9.8
2024-03-29T03:59:13.876Z,9.8
2024-03-29T04:00:44.340Z,9.8
2024-03-29T04:02:14.865Z,9.8
2024-03-29T04:03:45.347Z,9.8
2024-03-29T04:05:15.811Z,9.8
2024-03-29T04:06:46.317Z,9.8
2024-03-29T04:08:16.773Z,9.8
2024-03-29T04:09:47.269Z,9.8
2024-03-29T04:11:17.678Z,9.8
2024-03-29T04:12:48.103Z,9.8
2024-03-29T04:14:18.539Z,9.8
2024-03-29T04:15:49.037Z,9.8
2024-03-29T04:17:19.561Z,9.8
2024-03-29T04:18:50.053Z,9.8
2024-03-29T04:20:20.503Z,9.8
2024-03-29T04:21:51.091Z,9.8
2024-03-29T04:23:21.587Z,9.8
2024-03-29T04:24:52.084Z,9.8
2024-03-29T04:26:22.506Z,9.8
2024-03-29T04:27:53.034Z,9.8
2024-03-29T04:29:23.563Z,9.8
2024-03-29T04:30:54.078Z,9.8
2024-03-29T04:32:24.489Z,9.8
2024-03-29T04:33:54.990Z,9.8
2024-03-29T04:35:25.428Z,9.8
2024-03-29T04:36:55.847Z,9.8
2024-03-29T04:38:26.314Z,9.8
2024-03-29T04:39:56.790Z,9.8
2024-03-29T04:41:27.210Z,9.8
2024-03-29T04:42:57.648Z,9.8
2024-03-29T04:44:28.163Z,9.8
2024-03-29T04:45:58.676Z,9.8
2024-03-29T04:47:29.117Z,9.8
2024-03-29T04:48:59.557Z,9.8
2024-03-29T04:50:30.046Z,9.8
2024-03-29T04:52:00.461Z,9.8
2024-03-29T04:52:17.365Z,9.8
2024-03-29T04:53:47.945Z,9.8
2024-03-29T04:55:18.396Z,9.8
2024-03-29T04:56:48.866Z,9.8
2024-03-29T04:58:19.458Z,9.8
2024-03-29T04:59:49.972Z,9.8
2024-03-29T05:01:20.418Z,9.8
2024-03-29T05:02:50.922Z,9.8
2024-03-29T05:04:21.515Z,9.8
2024-03-29T05:05:51.958Z,9.8
2024-03-29T05:07:22.398Z,9.8
2024-03-29T05:08:52.907Z,9.8
2024-03-29T05:10:23.421Z,9.8
2024-03-29T05:11:53.871Z,9.8
2024-03-29T05:13:24.429Z,9.8
2024-03-29T05:14:54.912Z,9.8
2024-03-29T05:16:25.452Z,9.8
2024-03-29T05:17:55.942Z,9.8
2024-03-29T05:19:26.443Z,9.8
2024-03-29T05:20:56.904Z,9.8
2024-03-29T05:22:27.403Z,9.8
2024-03-29T05:23:57.826Z,9.8
2024-03-29T05:25:28.272Z,9.8
2024-03-29T05:26:58.771Z,9.8
2024-03-29T05:28:29.287Z,9.8
2024-03-29T05:29:59.794Z,9.8
2024-03-29T05:31:30.247Z,9.8
2024-03-29T05:33:00.791Z,9.8
2024-03-29T05:34:31.355Z,9.8
2024-03-29T05:36:01.830Z,9.8
2024-03-29T05:37:32.337Z,9.8
2024-03-29T05:39:07.900Z,9.8
2024-03-29T05:40:38.512Z,9.8
2024-03-29T05:42:09.023Z,9.8
2024-03-29T05:43:39.436Z,9.8
2024-03-29T05:45:09.873Z,9.8
2024-03-29T05:46:40.296Z,9.8
2024-03-29T05:48:10.710Z,9.8
2024-03-29T05:49:41.141Z,9.8
2024-03-29T05:51:11.531Z,9.8
2024-03-29T05:52:41.954Z,9.8
2024-03-29T05:54:12.391Z,9.8
2024-03-29T05:55:42.957Z,9.8
2024-03-29T05:57:13.418Z,9.8
2024-03-29T05:58:43.859Z,9.8
2024-03-29T06:00:14.431Z,9.8
2024-03-29T06:01:44.889Z,9.9
2024-03-29T06:03:15.586Z,9.8
2024-03-29T06:04:46.161Z,9.9
2024-03-29T06:06:16.622Z,9.9
2024-03-29T06:07:47.120Z,9.8
2024-03-29T06:09:17.611Z,9.8
2024-03-29T06:10:48.021Z,9.9
2024-03-29T06:12:18.462Z,9.9
2024-03-29T06:13:48.869Z,9.9
2024-03-29T06:15:19.290Z,9.8
2024-03-29T06:16:49.699Z,9.9
2024-03-29T06:18:20.133Z,9.9
2024-03-29T06:19:50.569Z,9.9
2024-03-29T06:21:20.964Z,9.9
2024-03-29T06:22:51.413Z,9.9
2024-03-29T06:24:21.911Z,9.9
2024-03-29T06:25:52.335Z,9.9
2024-03-29T06:27:22.814Z,9.9
2024-03-29T06:28:53.274Z,9.9
2024-03-29T06:30:23.711Z,9.9
2024-03-29T06:31:54.144Z,9.9
2024-03-29T06:33:24.638Z,9.9
2024-03-29T06:34:55.141Z,9.9
2024-03-29T06:36:25.634Z,9.9
2024-03-29T06:37:56.124Z,9.9
2024-03-29T06:39:26.641Z,9.9
2024-03-29T06:40:57.096Z,9.9
2024-03-29T06:41:14.085Z,9.9
2024-03-29T06:42:44.518Z,9.9
2024-03-29T06:44:14.967Z,9.9
2024-03-29T06:45:45.483Z,9.9
2024-03-29T06:47:16.172Z,9.9
2024-03-29T06:48:46.704Z,9.9
2024-03-29T06:50:17.446Z,9.9
2024-03-29T06:51:48.012Z,9.9
2024-03-29T06:53:18.553Z,9.9
2024-03-29T06:54:49.000Z,9.9
2024-03-29T06:56:19.478Z,9.9
2024-03-29T06:57:49.943Z,9.9
2024-03-29T06:59:20.370Z,9.9
2024-03-29T07:00:50.795Z,9.9
2024-03-29T07:02:21.233Z,9.9
2024-03-29T07:03:51.629Z,9.9
2024-03-29T07:05:22.132Z,9.9
2024-03-29T07:06:52.579Z,9.9
2024-03-29T07:08:23.007Z,9.9
2024-03-29T07:09:53.448Z,9.9
2024-03-29T07:11:23.937Z,9.9
2024-03-29T07:12:54.358Z,9.9
2024-03-29T07:14:24.847Z,9.9
2024-03-29T07:15:55.302Z,9.9
2024-03-29T07:17:25.722Z,9.9
2024-03-29T07:18:56.167Z,9.9
2024-03-29T07:20:26.604Z,9.9
2024-03-29T07:21:57.091Z,9.9
2024-03-29T07:23:27.518Z,9.9
2024-03-29T07:24:57.930Z,9.9
2024-03-29T07:26:28.368Z,9.9
2024-03-29T07:27:58.869Z,9.9
2024-03-29T07:29:29.293Z,9.9
2024-03-29T07:30:59.729Z,9.9
2024-03-29T07:32:30.227Z,9.9
2024-03-29T07:34:00.668Z,9.9
2024-03-29T07:35:31.088Z,9.9
2024-03-29T07:37:01.492Z,9.9
2024-03-29T07:38:31.923Z,9.9
2024-03-29T07:40:02.394Z,9.9
2024-03-29T07:41:32.849Z,9.9
2024-03-29T07:43:03.279Z,9.9
2024-03-29T07:44:33.695Z,9.9
2024-03-29T07:46:04.125Z,9.9
2024-03-29T07:47:34.585Z,9.9
2024-03-29T07:49:05.056Z,9.9
2024-03-29T07:50:35.556Z,9.9
2024-03-29T07:52:06.085Z,9.9
2024-03-29T07:53:36.521Z,9.9
2024-03-29T07:55:10.407Z,9.9
2024-03-29T07:56:43.218Z,9.9
2024-03-29T07:58:13.646Z,9.9
2024-03-29T07:59:44.044Z,9.9
2024-03-29T08:01:14.478Z,9.9
2024-03-29T08:02:44.894Z,9.9
2024-03-29T08:04:15.422Z,9.9
2024-03-29T08:05:45.847Z,9.9
2024-03-29T08:07:16.260Z,9.9
2024-03-29T08:08:46.669Z,9.9
2024-03-29T08:10:17.092Z,9.9
2024-03-29T08:11:47.516Z,9.9
2024-03-29T08:13:17.927Z,9.9
2024-03-29T08:14:48.353Z,9.9
2024-03-29T08:16:18.769Z,9.9
2024-03-29T08:17:49.191Z,9.9
2024-03-29T08:19:19.608Z,9.9
2024-03-29T08:20:50.069Z,10
2024-03-29T08:22:20.551Z,9.9
2024-03-29T08:23:50.978Z,9.9
2024-03-29T08:25:21.443Z,9.9
2024-03-29T08:26:51.935Z,9.9
2024-03-29T08:28:22.354Z,10
2024-03-29T08:29:53.008Z,10
2024-03-29T08:33:10.799Z,10
2024-03-29T08:34:41.264Z,10
2024-03-29T08:36:11.801Z,10
2024-03-29T08:37:42.273Z,10
2024-03-29T08:39:12.685Z,10
2024-03-29T08:40:43.110Z,9.6
2024-03-29T08:42:13.525Z,9.4
2024-03-29T08:43:43.967Z,9.3
2024-03-29T08:45:14.429Z,9.3
2024-03-29T08:46:44.886Z,9.3
2024-03-29T08:48:16.621Z,9.3
2024-03-29T08:49:47.200Z,9.3
2024-03-29T08:51:17.749Z,9.3
2024-03-29T08:52:48.204Z,9.3
2024-03-29T08:54:18.669Z,9.3
2024-03-29T08:55:49.157Z,9.3
2024-03-29T08:57:19.572Z,9.3
2024-03-29T08:58:50.163Z,9.2
2024-03-29T09:00:20.820Z,9
2024-03-29T09:03:29.487Z,8.9
2024-03-29T09:04:59.931Z,8.9
2024-03-29T09:06:30.358Z,8.9
2024-03-29T09:08:00.799Z,8.9
2024-03-29T09:09:31.301Z,8.9
2024-03-29T09:11:01.727Z,9
2024-03-29T09:12:32.144Z,9
2024-03-29T09:14:07.763Z,9.1
2024-03-29T09:15:38.720Z,9.1
2024-03-29T09:17:09.250Z,9.1
2024-03-29T09:18:39.663Z,9.2
2024-03-29T09:20:10.073Z,9.2
2024-03-29T09:21:40.795Z,9.3
2024-03-29T09:23:11.338Z,9.3
2024-03-29T09:24:41.848Z,9.3
2024-03-29T09:26:12.264Z,9.3
2024-03-29T09:27:42.694Z,9.3
2024-03-29T09:29:13.102Z,9.3
2024-03-29T09:30:43.525Z,9.3
2024-03-29T09:32:13.974Z,9.3
2024-03-29T09:33:44.503Z,9.4
2024-03-29T09:35:15.004Z,9.4
2024-03-29T09:36:45.486Z,9.4
2024-03-29T09:38:15.948Z,9.4
2024-03-29T09:39:46.457Z,9.4
2024-03-29T09:41:16.942Z,9.4
2024-03-29T09:42:47.405Z,9.4
2024-03-29T09:44:17.855Z,9.4
2024-03-29T09:45:48.347Z,9.5
2024-03-29T09:47:19.443Z,9.5
2024-03-29T09:48:49.903Z,9.5
2024-03-29T09:50:20.409Z,9.5
2024-03-29T09:51:50.874Z,9.6
2024-03-29T09:53:21.488Z,9.6
2024-03-29T09:54:51.991Z,9.6
2024-03-29T09:56:22.491Z,9.6
2024-03-29T09:57:52.941Z,9.5
2024-03-29T09:59:23.356Z,9.3
2024-03-29T10:00:53.792Z,9.3
2024-03-29T10:02:24.244Z,9.3
2024-03-29T10:03:54.725Z,9.3
2024-03-29T10:05:25.213Z,9.3
2024-03-29T10:06:55.709Z,9.3
2024-03-29T10:08:26.183Z,9.3
2024-03-29T10:09:56.667Z,9.3
2024-03-29T10:11:27.139Z,9.4
2024-03-29T10:12:57.917Z,9.4
2024-03-29T10:14:28.453Z,9.4
2024-03-29T10:15:58.912Z,9.4
2024-03-29T10:17:29.460Z,9.4
2024-03-29T10:18:59.992Z,9.4
2024-03-29T10:20:30.497Z,9.5
2024-03-29T10:22:01.104Z,9.5
2024-03-29T10:23:31.531Z,9.6
2024-03-29T10:25:02.122Z,9.6
2024-03-29T10:26:32.729Z,9.4
2024-03-29T10:28:03.192Z,9.3
2024-03-29T10:29:33.626Z,9.3
2024-03-29T10:31:04.057Z,9.3
2024-03-29T10:32:34.562Z,9.3
2024-03-29T10:34:04.991Z,9.3
2024-03-29T10:35:35.746Z,9.3
2024-03-29T10:37:06.238Z,9.3
2024-03-29T10:38:36.678Z,9.3
2024-03-29T10:40:07.169Z,9.3
2024-03-29T10:41:37.894Z,9.4
2024-03-29T10:43:08.334Z,9.4
2024-03-29T10:44:38.838Z,9.4
2024-03-29T10:46:09.271Z,9.4
2024-03-29T10:47:40.025Z,9.4
2024-03-29T10:49:10.515Z,9.5
2024-03-29T10:50:40.929Z,9.5
2024-03-29T10:52:11.395Z,9.5
2024-03-29T10:53:58.785Z,9.5
2024-03-29T10:55:29.298Z,9.6
2024-03-29T10:56:59.731Z,9.6
2024-03-29T10:58:30.244Z,9.6
2024-03-29T11:00:00.765Z,9.6
2024-03-29T11:01:31.194Z,9.6
2024-03-29T11:03:01.728Z,9.6
2024-03-29T11:04:32.229Z,9.6
2024-03-29T11:06:02.704Z,9.6
2024-03-29T11:07:33.443Z,9.6
2024-03-29T11:09:03.898Z,9.6
2024-03-29T11:10:34.328Z,9.6
2024-03-29T11:12:04.844Z,9.4
2024-03-29T11:13:35.260Z,9.2
2024-03-29T11:15:05.690Z,9.2
2024-03-29T11:16:36.102Z,9.1
2024-03-29T11:18:06.513Z,9.1
2024-03-29T11:19:36.937Z,9.1
2024-03-29T11:21:07.400Z,9.2
2024-03-29T11:22:37.917Z,9.2
2024-03-29T11:24:08.298Z,9.3
2024-03-29T11:25:38.889Z,9.3
2024-03-29T11:27:09.344Z,9.3
2024-03-29T11:28:39.762Z,9.3
2024-03-29T11:30:13.524Z,9.3
2024-03-29T11:31:43.986Z,9.3
2024-03-29T11:33:14.411Z,9.3
2024-03-29T11:34:44.862Z,9.3
2024-03-29T11:36:15.350Z,9.3
2024-03-29T11:37:45.823Z,9.1
2024-03-29T11:39:16.327Z,9.1
2024-03-29T11:40:46.836Z,9.1
2024-03-29T11:42:18.837Z,9.1
2024-03-29T11:43:49.308Z,9.1
2024-03-29T11:45:19.833Z,9.1
2024-03-29T11:46:50.238Z,9.1
2024-03-29T11:48:20.793Z,9.1
2024-03-29T11:49:51.301Z,9.1
2024-03-29T11:51:21.715Z,9.2
2024-03-29T11:52:52.192Z,9.2
2024-03-29T11:54:27.638Z,9.2
2024-03-29T11:55:58.098Z,9.3
2024-03-29T11:57:28.607Z,9.3
2024-03-29T11:58:59.167Z,9.3
2024-03-29T12:00:29.669Z,9.3
2024-03-29T12:02:00.073Z,9.3
2024-03-29T12:03:30.773Z,9.4
2024-03-29T12:05:01.236Z,9.4
2024-03-29T12:06:31.642Z,9.4
2024-03-29T12:08:02.137Z,9.4
2024-03-29T12:09:32.612Z,9.4
2024-03-29T12:11:03.108Z,9.4
2024-03-29T12:12:33.641Z,9.4
2024-03-29T12:14:04.154Z,9.4
2024-03-29T12:15:34.703Z,9.5
2024-03-29T12:17:05.259Z,9.5
2024-03-29T12:18:35.889Z,9.5
2024-03-29T12:20:06.492Z,9.5
2024-03-29T12:21:36.984Z,9.5
2024-03-29T12:23:07.523Z,9.5
2024-03-29T12:24:38.014Z,9.6
2024-03-29T12:26:08.442Z,9.6
2024-03-29T12:27:39.009Z,9.6
2024-03-29T12:29:09.486Z,9.6
2024-03-29T12:30:39.900Z,9.6
2024-03-29T12:32:10.335Z,9.6
2024-03-29T12:33:40.744Z,9.6
2024-03-29T12:35:11.165Z,9.6
2024-03-29T12:36:41.605Z,9.6
2024-03-29T12:38:12.022Z,9.6
2024-03-29T12:39:42.426Z,9.6
2024-03-29T12:41:13.085Z,9.6
2024-03-29T12:41:29.986Z,9.6
2024-03-29T12:43:00.471Z,9.6
2024-03-29T12:44:30.930Z,9.6
2024-03-29T12:46:01.559Z,9.7
2024-03-29T12:47:32.105Z,9.7
2024-03-29T12:49:02.560Z,9.7
2024-03-29T12:50:33.001Z,9.7
2024-03-29T12:52:03.409Z,9.7
2024-03-29T12:53:33.978Z,9.7
2024-03-29T12:55:04.722Z,9.7
2024-03-29T12:56:35.579Z,9.8
2024-03-29T12:58:06.104Z,9.8
2024-03-29T12:59:36.527Z,9.8
2024-03-29T13:01:06.950Z,9.8
2024-03-29T13:02:37.369Z,9.8
2024-03-29T13:04:07.825Z,9.8
2024-03-29T13:05:38.355Z,9.8
2024-03-29T13:07:08.834Z,9.8
2024-03-29T13:08:39.756Z,9.8
2024-03-29T13:10:10.312Z,9.8
2024-03-29T13:11:40.816Z,9.8
2024-03-29T13:13:11.237Z,9.8
2024-03-29T13:14:44.471Z,9.8
2024-03-29T13:16:14.949Z,9.8
2024-03-29T13:17:45.483Z,9.8
2024-03-29T13:19:16.076Z,9.8
2024-03-29T13:20:46.521Z,9.8
2024-03-29T13:22:17.049Z,9.8
2024-03-29T13:23:47.494Z,9.8
2024-03-29T13:25:18.011Z,9.8
2024-03-29T13:26:48.509Z,9.8
2024-03-29T13:28:18.929Z,9.8
2024-03-29T13:29:49.373Z,9.8
2024-03-29T13:31:20.065Z,9.6
2024-03-29T13:32:50.485Z,9.4
2024-03-29T13:34:21.014Z,9.3
2024-03-29T13:35:51.476Z,9.3
2024-03-29T13:37:22.040Z,9.4
2024-03-29T13:39:03.583Z,9.4
2024-03-29T13:40:34.061Z,9.4
2024-03-29T13:42:04.490Z,9.4
2024-03-29T13:43:35.030Z,9.5
2024-03-29T13:45:05.534Z,9.4
2024-03-29T13:46:36.257Z,9.4
2024-03-29T13:48:06.687Z,9.4
2024-03-29T13:49:37.266Z,9.4
2024-03-29T13:51:07.732Z,9.4
2024-03-29T13:52:38.149Z,9.4
2024-03-29T13:54:08.598Z,9.4
2024-03-29T13:55:39.143Z,9.4
2024-03-29T13:57:09.638Z,9.5
2024-03-29T13:58:40.169Z,9.5
2024-03-29T14:00:10.656Z,9.6
2024-03-29T14:01:41.125Z,9.6
2024-03-29T14:03:11.611Z,9.6
2024-03-29T14:04:42.014Z,9.6
2024-03-29T14:06:12.459Z,9.6
2024-03-29T14:07:42.964Z,9.6
2024-03-29T14:09:13.554Z,9.6
2024-03-29T14:10:44.054Z,9.6
2024-03-29T14:12:14.558Z,9.7
2024-03-29T14:13:45.050Z,9.7
2024-03-29T14:15:15.471Z,9.6
2024-03-29T14:16:45.899Z,9.5
2024-03-29T14:18:16.440Z,9.4
2024-03-29T14:19:46.943Z,9.3
2024-03-29T14:21:17.381Z,9.1
2024-03-29T14:22:48.654Z,9.1
2024-03-29T14:24:19.200Z,9.1
2024-03-29T14:25:49.700Z,9.1
2024-03-29T14:27:20.162Z,9.1
2024-03-29T14:28:50.586Z,9.1
2024-03-29T14:30:21.076Z,9.1
2024-03-29T14:30:38.029Z,9.1
2024-03-29T14:32:08.645Z,9.1
2024-03-29T14:33:39.155Z,9.2
2024-03-29T14:35:09.594Z,9.2
2024-03-29T14:36:40.097Z,9.2
2024-03-29T14:38:10.717Z,9.3
2024-03-29T14:39:41.246Z,9.3
2024-03-29T14:41:11.664Z,9.3
2024-03-29T14:42:42.125Z,9.3
2024-03-29T14:44:12.647Z,9.3
2024-03-29T14:45:43.132Z,9.3
2024-03-29T14:47:13.749Z,9.4
2024-03-29T14:48:44.188Z,9.4
2024-03-29T14:50:14.710Z,9.4
2024-03-29T14:51:45.118Z,9.4
2024-03-29T14:53:15.535Z,9.4
2024-03-29T14:54:46.005Z,9.4
2024-03-29T14:56:20.842Z,9.4
2024-03-29T14:57:51.305Z,9.5
2024-03-29T14:59:21.731Z,9.5
2024-03-29T15:00:52.248Z,9.5
2024-03-29T15:03:17.688Z,9.5
2024-03-29T15:04:48.084Z,9.6
2024-03-29T15:06:22.445Z,9.6
2024-03-29T15:07:52.944Z,9.6
2024-03-29T15:09:23.438Z,9.6
2024-03-29T15:10:53.947Z,9.6
2024-03-29T15:12:27.127Z,9.6
2024-03-29T15:13:57.474Z,9.6
2024-03-29T15:15:27.970Z,9.6
2024-03-29T15:16:58.410Z,9.6
2024-03-29T15:18:28.833Z,9.6
2024-03-29T15:19:59.245Z,9.6
2024-03-29T15:21:29.669Z,9.6
2024-03-29T15:23:00.120Z,9.6
2024-03-29T15:24:30.515Z,9.7
2024-03-29T15:26:00.997Z,9.7
2024-03-29T15:27:31.464Z,9.7
2024-03-29T15:29:01.877Z,9.7
2024-03-29T15:30:32.396Z,9.7
2024-03-29T15:32:02.819Z,9.7
2024-03-29T15:33:33.243Z,9.7
2024-03-29T15:35:03.652Z,9.8
2024-03-29T15:36:34.098Z,9.8
2024-03-29T15:38:04.502Z,9.8
2024-03-29T15:39:34.915Z,9.8
2024-03-29T15:41:05.435Z,9.8
2024-03-29T15:42:36.036Z,9.8
2024-03-29T15:44:06.489Z,9.8
2024-03-29T15:45:36.921Z,9.8
2024-03-29T15:47:07.338Z,9.8
2024-03-29T15:48:37.756Z,9.8
2024-03-29T15:50:08.175Z,9.8
2024-03-29T15:51:38.604Z,9.8
2024-03-29T15:53:09.007Z,9.8
2024-03-29T15:54:39.425Z,9.8
2024-03-29T15:56:09.900Z,9.8
2024-03-29T15:57:40.370Z,9.8
2024-03-29T15:59:10.794Z,9.8
2024-03-29T16:00:41.231Z,9.6
2024-03-29T16:02:11.741Z,9.5
2024-03-29T16:03:42.155Z,9.4
2024-03-29T16:05:12.651Z,9.5
2024-03-29T16:06:43.099Z,9.4
2024-03-29T16:08:13.795Z,9.5
2024-03-29T16:09:44.274Z,9.5
2024-03-29T16:11:14.786Z,9.5
2024-03-29T16:12:45.192Z,9.4
2024-03-29T16:14:15.608Z,9.4
2024-03-29T16:15:46.271Z,9.3
2024-03-29T16:17:16.973Z,9.4
2024-03-29T16:18:47.585Z,9.4
2024-03-29T16:20:18.084Z,9.4
2024-03-29T16:21:48.601Z,9.4
2024-03-29T16:23:19.059Z,9.4
2024-03-29T16:24:49.495Z,9.4
2024-03-29T16:26:19.918Z,9.5
2024-03-29T16:27:50.306Z,9.5
2024-03-29T16:29:20.735Z,9.5
2024-03-29T16:30:51.159Z,9.5
2024-03-29T16:32:21.644Z,9.6
2024-03-29T16:33:52.320Z,9.6
2024-03-29T16:35:22.772Z,9.6
2024-03-29T16:36:53.245Z,9.6
2024-03-29T16:38:23.679Z,9.6
2024-03-29T16:39:54.101Z,9.6
2024-03-29T16:41:24.690Z,9.6
2024-03-29T16:42:55.136Z,9.6
2024-03-29T16:44:25.563Z,9.6
2024-03-29T16:45:55.971Z,9.6
2024-03-29T16:47:26.406Z,9.5
2024-03-29T16:48:56.856Z,9.4
2024-03-29T16:50:27.329Z,9.4
2024-03-29T16:51:57.761Z,9.4
2024-03-29T16:52:14.643Z,9.4
2024-03-29T16:53:47.779Z,9.4
2024-03-29T16:55:18.255Z,9.5
2024-03-29T16:56:48.686Z,9.5
2024-03-29T16:58:19.204Z,9.5
2024-03-29T16:59:49.614Z,9.6
2024-03-29T17:01:20.034Z,9.6
2024-03-29T17:02:50.534Z,9.6
2024-03-29T17:04:20.976Z,9.6
2024-03-29T17:05:51.401Z,9.6
2024-03-29T17:07:21.878Z,9.6
2024-03-29T17:08:52.343Z,9.6
2024-03-29T17:10:22.766Z,9.6
2024-03-29T17:11:53.233Z,9.7
2024-03-29T17:13:23.714Z,9.7
2024-03-29T17:14:54.130Z,9.7
2024-03-29T17:16:24.560Z,9.7
2024-03-29T17:17:54.969Z,9.8
2024-03-29T17:19:25.399Z,9.8
2024-03-29T17:20:55.823Z,9.8
2024-03-29T17:22:26.230Z,9.8
2024-03-29T17:23:56.648Z,9.8
2024-03-29T17:25:27.082Z,9.8
2024-03-29T17:26:57.504Z,9.8
2024-03-29T17:28:27.966Z,9.8
2024-03-29T17:29:58.434Z,9.8
2024-03-29T17:31:28.859Z,9.8
2024-03-29T17:32:59.275Z,9.8
2024-03-29T17:34:29.698Z,9.8
2024-03-29T17:36:00.194Z,9.8
2024-03-29T17:37:30.639Z,9.9
2024-03-29T17:39:01.054Z,9.9
2024-03-29T17:40:31.498Z,9.9
2024-03-29T17:42:01.908Z,9.9
2024-03-29T17:43:32.366Z,9.9
2024-03-29T17:45:02.888Z,9.9
2024-03-29T17:46:33.361Z,9.9
2024-03-29T17:48:03.787Z,9.9
2024-03-29T17:49:34.221Z,9.9
2024-03-29T17:51:04.623Z,9.9
2024-03-29T17:52:35.095Z,9.9
2024-03-29T17:54:05.601Z,9.9
2024-03-29T17:55:36.092Z,9.9
2024-03-29T17:57:06.524Z,9.9
2024-03-29T17:58:36.941Z,9.9
2024-03-29T18:00:07.360Z,9.9
2024-03-29T18:01:37.766Z,9.9
2024-03-29T18:03:08.202Z,9.9
2024-03-29T18:04:38.627Z,10
2024-03-29T18:06:09.031Z,10
2024-03-29T18:07:39.464Z,10
2024-03-29T18:09:09.890Z,10
2024-03-29T18:10:40.294Z,10
2024-03-29T18:12:10.780Z,10
2024-03-29T18:13:41.243Z,10
2024-03-29T18:15:11.662Z,10
2024-03-29T18:16:42.846Z,10
2024-03-29T18:18:13.322Z,10
2024-03-29T18:19:43.729Z,10
2024-03-29T18:21:14.170Z,10
2024-03-29T18:22:44.708Z,10
2024-03-29T18:24:15.205Z,10.1
2024-03-29T18:25:45.620Z,10
2024-03-29T18:27:16.078Z,10.1
2024-03-29T18:28:46.470Z,10.1
2024-03-29T18:30:16.892Z,10.1
2024-03-29T18:31:47.372Z,10.1
2024-03-29T18:33:18.001Z,10.1
2024-03-29T18:34:48.494Z,10.1
2024-03-29T18:36:18.973Z,10.1
2024-03-29T18:37:49.626Z,10
2024-03-29T18:39:20.118Z,9.9
2024-03-29T18:40:50.542Z,9.9
2024-03-29T18:41:07.426Z,9.9
2024-03-29T18:42:38.044Z,9.9
2024-03-29T18:44:08.493Z,9.9
2024-03-29T18:45:38.900Z,9.9
2024-03-29T18:47:09.510Z,10
2024-03-29T18:48:39.862Z,10
2024-03-29T18:50:10.263Z,10
2024-03-29T18:51:40.735Z,10
2024-03-29T18:53:11.220Z,10
2024-03-29T18:54:41.657Z,10
2024-03-29T18:56:12.168Z,10
2024-03-29T18:57:42.591Z,10.1
2024-03-29T18:59:13.125Z,10.1
2024-03-29T19:00:43.702Z,10.1
2024-03-29T19:02:14.135Z,10.1
2024-03-29T19:03:44.583Z,10.1
2024-03-29T19:05:15.051Z,10.1
2024-03-29T19:06:45.658Z,10.1
2024-03-29T19:08:16.249Z,10.1
2024-03-29T19:09:46.873Z,10.1
2024-03-29T19:11:17.336Z,10.1
2024-03-29T19:12:48.000Z,10.1
2024-03-29T19:14:18.439Z,10.1
2024-03-29T19:15:48.896Z,10.1
2024-03-29T19:17:19.524Z,10.1
2024-03-29T19:18:49.996Z,10.1
2024-03-29T19:20:20.443Z,10.1
2024-03-29T19:21:50.956Z,10.2
2024-03-29T19:23:21.460Z,10.2
2024-03-29T19:24:51.894Z,10.2
2024-03-29T19:26:22.309Z,10.2
2024-03-29T19:27:53.013Z,10.2
2024-03-29T19:29:23.451Z,10.2
2024-03-29T19:30:54.207Z,10.2
2024-03-29T19:32:24.760Z,10.2
2024-03-29T19:33:55.251Z,10.2
2024-03-29T19:35:25.742Z,10.2
2024-03-29T19:36:56.184Z,10.2
2024-03-29T19:38:26.621Z,10.3
2024-03-29T19:39:57.107Z,10.3
2024-03-29T19:41:27.525Z,10.3
2024-03-29T19:42:57.984Z,10.3
2024-03-29T19:44:28.513Z,9.7
2024-03-29T19:45:58.987Z,9.4
2024-03-29T19:47:29.461Z,9.4
2024-03-29T19:48:59.935Z,9.3
2024-03-29T19:50:30.348Z,9.3
2024-03-29T19:52:00.785Z,9.4
2024-03-29T19:53:31.313Z,9.4
2024-03-29T19:55:01.731Z,9.4
2024-03-29T19:56:32.283Z,9.5
2024-03-29T19:58:02.788Z,9.5
2024-03-29T19:59:33.177Z,9.5
2024-03-29T20:01:03.606Z,9.6
2024-03-29T20:02:34.048Z,9.6
2024-03-29T20:04:04.449Z,9.6
2024-03-29T20:05:34.860Z,9.6
2024-03-29T20:07:08.294Z,9.6
2024-03-29T20:08:40.276Z,9.6
2024-03-29T20:10:10.943Z,9.7
2024-03-29T20:11:41.756Z,9.7
2024-03-29T20:13:12.348Z,9.7
2024-03-29T20:14:42.886Z,9.7
2024-03-29T20:16:13.357Z,9.8
2024-03-29T20:17:44.156Z,9.8
2024-03-29T20:19:14.864Z,9.8
2024-03-29T20:20:45.392Z,9.8
2024-03-29T20:22:15.850Z,9.8
2024-03-29T20:23:46.327Z,9.8
2024-03-29T20:25:16.967Z,9.8
2024-03-29T20:26:47.475Z,9.8
2024-03-29T20:28:17.942Z,9.8
2024-03-29T20:29:48.398Z,9.8
2024-03-29T20:33:06.487Z,9.9
2024-03-29T20:34:36.876Z,9.9
2024-03-29T20:36:07.368Z,9.9
2024-03-29T20:37:37.872Z,9.9
2024-03-29T20:39:08.461Z,9.9
2024-03-29T20:40:38.866Z,9.9
2024-03-29T20:42:09.448Z,9.9
2024-03-29T20:43:40.583Z,9.9
2024-03-29T20:45:11.607Z,9.9
2024-03-29T20:46:42.130Z,9.9
2024-03-29T20:48:12.698Z,9.9
2024-03-29T20:49:43.286Z,10
2024-03-29T20:51:13.806Z,10
2024-03-29T20:52:44.259Z,10
2024-03-29T20:54:14.774Z,10
2024-03-29T20:55:48.079Z,10
2024-03-29T20:57:19.107Z,10
2024-03-29T20:58:49.742Z,10
2024-03-29T21:00:20.247Z,10
2024-03-29T21:01:50.914Z,10.1
2024-03-29T21:03:21.387Z,10.1
2024-03-29T21:04:51.860Z,10.1
2024-03-29T21:06:22.376Z,10.1
2024-03-29T21:07:52.894Z,10.1
2024-03-29T21:09:24.581Z,10.1
2024-03-29T21:10:55.232Z,10.1
2024-03-29T21:12:25.773Z,10.1
2024-03-29T21:13:56.324Z,10.1
2024-03-29T21:15:26.783Z,10.1
2024-03-29T21:16:57.175Z,10.1
2024-03-29T21:18:27.617Z,10.1
2024-03-29T21:19:58.016Z,10.1
2024-03-29T21:21:28.612Z,10.1
2024-03-29T21:22:59.083Z,10.1
2024-03-29T21:24:29.492Z,10.1
2024-03-29T21:25:59.974Z,10
2024-03-29T21:27:30.455Z,10
2024-03-29T21:29:00.986Z,10
2024-03-29T21:30:31.762Z,10
2024-03-29T21:32:02.395Z,10
2024-03-29T21:33:33.430Z,10.1
2024-03-29T21:35:04.260Z,10.1
2024-03-29T21:36:34.727Z,10.1
2024-03-29T21:38:05.270Z,10.1
2024-03-29T21:39:35.755Z,10.1
2024-03-29T21:41:06.185Z,10.1
2024-03-29T21:42:36.757Z,10.1
2024-03-29T21:44:07.224Z,10.1
2024-03-29T21:45:37.729Z,10.1